North Star, MI (48862)

09:38 EDT le 28 septembre 2016 (GMT -0400)
Gratiot Community | | Change Station

Alt. 751 ft 43.32 °N, 84.69 °W | Updated 5 minutes ago

Mostly Cloudy
Nuageux
55 ° F
Paraît 55 ° F
N
8
Vent Variable Vent de NE

Aujourd'hui
Haut(e) -- | Bas -- ° F
--% Risque de précip.
Hier
Haut(e) -- | Bas -- ° F
Precip. -- pouce
Pression 29.91 pouce
Visibilité 10.0 Miles terrestres
Nuages Nuageux 10000 ft
Point de rosée 52 ° F
Humidité 91%
Précipitations 0.00 pouce
Profondeur de la couche neigeuse Non disponible.
7:32 AM 7:23 PM
Lune descendante, 6% visible
METAR KAMN 281333Z AUTO 04007KT 10SM BKN100 13/11 A2991 RMK AO2 T01260111
Pression 29.91 pouce
Visibilité 10.0 Miles terrestres
Nuages Nuageux 10000 ft
Point de rosée 52 ° F
Humidité 91%
Précipitations 0.00 pouce
Profondeur de la couche neigeuse Non disponible.
7:32 AM 7:23 PM
Lune descendante, 6% visible
METAR KAMN 281333Z AUTO 04007KT 10SM BKN100 13/11 A2991 RMK AO2 T01260111

10-Day Weather Forecast

Almanac

Astronomie

Sep. 28, 2016 Lever Coucher
Temps réel
Crépuscule civil
Crépuscule nautique
Crépuscule astronomique
Lune
Durée de lumière visible
Longueur du jour
Tomorrow will be .
, % of the Moon is Illuminated

Extrêmes aujourd'hui

State Highs State Lows

Community

WunderPhotos

Upload Photos

1,942,259 Photos téléchargées !

WunderBlog® & News

Nearby

Qualité de l'air

  Qualité de l'air Indice de la qualité de l'air Polluant
Not available.

Épaisseur de neige

Station Depth Altitude

Activité sismique

Ville Distance Mag. Time & Date
Minimum magnitude displayed is 2.5.

Températures des eaux côtières

Lieu Température

Stations

Stations météo à proximité

Emplacement de la station Température Refroidissement éolien Point de rosée Humidité Vent Precip. Alt. Mise à jour Type
                   

Watches & Warnings

There are currently no watches in effect.